Time;durP1;ratioP1;P1;durP2;ratioP2;P2;SDS_P1;SDS_P2;PMS_P1;PMS_P2;Temp;Humidity;BMP_temperature;BMP_pressure;BME280_temperature;BME280_humidity;BME280_pressure;Samples;Min_cycle;Max_cycle;Signal;HPM_P1;HPM_P2
2021/12/07 00:01:43;;;;;;;37.45;11.25;;;1.30;99.90;;;;;;5080949;28;20452;-72
2021/12/07 00:04:09;;;;;;;26.23;9.20;;;1.30;99.90;;;;;;5063240;28;20021;-75
2021/12/07 00:06:36;;;;;;;25.08;8.27;;;1.30;99.90;;;;;;5063740;28;20037;-72
2021/12/07 00:09:04;;;;;;;23.45;8.82;;;1.20;99.90;;;;;;5064990;28;20510;-73
2021/12/07 00:11:30;;;;;;;29.08;9.95;;;1.20;99.90;;;;;;5065183;28;20535;-74
2021/12/07 00:13:58;;;;;;;35.70;8.93;;;1.20;99.90;;;;;;5063802;28;20037;-74
2021/12/07 00:16:24;;;;;;;24.15;8.82;;;1.20;99.90;;;;;;5065119;28;20024;-76
2021/12/07 00:18:51;;;;;;;33.65;9.77;;;1.30;99.90;;;;;;5063559;28;20088;-76
2021/12/07 00:21:19;;;;;;;29.83;8.70;;;1.30;99.90;;;;;;5063546;28;20031;-73
2021/12/07 00:23:47;;;;;;;29.67;8.57;;;1.20;99.90;;;;;;5064963;28;20040;-77
2021/12/07 00:26:16;;;;;;;33.17;10.25;;;1.30;99.90;;;;;;5065024;28;20040;-74
2021/12/07 00:28:43;;;;;;;26.50;8.07;;;1.30;99.90;;;;;;5080517;28;20059;-72
2021/12/07 00:31:15;;;;;;;24.30;9.02;;;1.30;99.90;;;;;;5063790;28;20029;-73
2021/12/07 00:33:49;;;;;;;27.40;10.15;;;1.30;99.90;;;;;;5065148;28;20050;-75
2021/12/07 00:36:15;;;;;;;19.95;7.82;;;1.20;99.90;;;;;;5064952;28;20032;-76
2021/12/07 00:38:42;;;;;;;23.27;7.57;;;1.20;99.90;;;;;;5063753;28;20564;-74
2021/12/07 00:41:08;;;;;;;36.50;10.80;;;1.20;99.90;;;;;;5063527;28;20041;-73
2021/12/07 00:43:34;;;;;;;35.38;10.70;;;1.20;99.90;;;;;;5065083;28;20047;-73
2021/12/07 00:46:02;;;;;;;29.73;9.77;;;1.20;99.90;;;;;;5062997;28;20025;-72
2021/12/07 00:48:28;;;;;;;24.20;8.13;;;1.20;99.90;;;;;;5064496;28;20025;-75
2021/12/07 00:50:56;;;;;;;24.17;7.47;;;1.20;99.90;;;;;;5064761;28;20029;-74
2021/12/07 00:53:23;;;;;;;27.80;9.13;;;1.20;99.90;;;;;;5064361;28;20064;-72
2021/12/07 00:55:52;;;;;;;26.27;10.18;;;1.20;99.90;;;;;;5064803;28;20393;-73
2021/12/07 00:58:23;;;;;;;33.92;10.95;;;1.20;99.90;;;;;;5064490;28;20055;-74
2021/12/07 01:01:04;;;;;;;22.85;7.97;;;1.20;99.90;;;;;;5064471;28;20037;-72
2021/12/07 01:03:30;;;;;;;25.73;9.25;;;1.20;99.90;;;;;;5063063;28;20107;-73
2021/12/07 01:06:06;;;;;;;17.38;7.15;;;1.20;99.90;;;;;;5064457;28;20028;-74
2021/12/07 01:08:57;;;;;;;29.45;9.27;;;1.20;99.90;;;;;;5064249;28;20025;-73
2021/12/07 01:25:26;;;;;;;20.25;7.78;;;1.20;99.90;;;;;;5056494;28;20075;-74
2021/12/07 01:27:55;;;;;;;29.38;10.00;;;1.20;99.90;;;;;;5068045;28;20050;-75
2021/12/07 01:30:35;;;;;;;35.55;9.05;;;1.20;99.90;;;;;;5067081;28;20036;-77
2021/12/07 01:33:21;;;;;;;29.23;9.50;;;1.20;99.90;;;;;;5068206;28;20017;-75
2021/12/07 01:36:12;;;;;;;29.83;9.50;;;1.20;99.90;;;;;;5068367;28;20116;-73
2021/12/07 01:41:15;;;;;;;31.25;9.35;;;1.20;99.90;;;;;;5067958;28;20330;-73
2021/12/07 01:59:53;;;;;;;33.10;8.80;;;1.30;99.90;;;;;;5067743;28;20032;-74
2021/12/07 02:02:21;;;;;;;30.20;10.00;;;1.30;99.90;;;;;;5067805;28;20095;-74
2021/12/07 02:04:47;;;;;;;35.05;10.05;;;1.30;99.90;;;;;;5066104;28;20021;-76
2021/12/07 02:07:15;;;;;;;24.60;9.30;;;1.30;99.90;;;;;;5082907;28;20029;-74
2021/12/07 02:09:46;;;;;;;24.88;9.05;;;1.30;99.90;;;;;;5065921;28;20029;-75
2021/12/07 02:12:13;;;;;;;35.50;9.85;;;1.40;99.90;;;;;;5067541;28;20473;-74
2021/12/07 02:14:41;;;;;;;24.17;8.48;;;1.40;99.90;;;;;;5067278;28;20033;-74
2021/12/07 02:17:15;;;;;;;25.58;8.57;;;1.40;99.90;;;;;;5066288;28;20032;-74
2021/12/07 02:19:44;;;;;;;30.85;10.48;;;1.40;99.90;;;;;;5066554;28;20029;-74
2021/12/07 02:22:10;;;;;;;33.00;9.25;;;1.40;99.90;;;;;;5066060;28;20041;-73
2021/12/07 02:24:37;;;;;;;18.40;7.78;;;1.40;99.90;;;;;;5065591;28;20033;-73
2021/12/07 02:27:03;;;;;;;28.20;8.73;;;1.50;99.90;;;;;;5066585;28;20040;-74
2021/12/07 02:29:29;;;;;;;32.97;10.57;;;1.50;99.90;;;;;;5065715;28;20092;-74
2021/12/07 02:31:56;;;;;;;18.80;8.13;;;1.50;99.90;;;;;;5065457;28;20029;-75
2021/12/07 02:34:23;;;;;;;29.00;11.80;;;1.50;99.90;;;;;;5066796;28;20041;-73
2021/12/07 02:36:50;;;;;;;22.02;8.18;;;1.50;99.90;;;;;;5065862;28;20025;-73
2021/12/07 02:39:16;;;;;;;31.08;9.63;;;1.50;99.90;;;;;;5067093;28;20048;-73
2021/12/07 02:41:44;;;;;;;30.13;9.82;;;1.50;99.90;;;;;;5065470;28;20025;-73
2021/12/07 02:44:10;;;;;;;26.45;8.43;;;1.50;99.90;;;;;;5067187;28;20389;-73
2021/12/07 02:46:38;;;;;;;27.25;9.00;;;1.60;99.90;;;;;;5066393;28;20025;-75
2021/12/07 02:49:06;;;;;;;27.08;9.43;;;1.60;99.90;;;;;;5064295;28;20060;-73
2021/12/07 02:51:32;;;;;;;35.33;8.48;;;1.60;99.90;;;;;;5066657;28;20044;-71
2021/12/07 02:53:58;;;;;;;31.70;9.13;;;1.60;99.90;;;;;;5066132;28;20048;-72
2021/12/07 02:56:24;;;;;;;23.63;9.07;;;1.60;99.90;;;;;;5066143;28;20033;-73
2021/12/07 02:58:56;;;;;;;30.42;9.15;;;1.60;99.90;;;;;;5065283;28;20055;-73
2021/12/07 03:01:26;;;;;;;23.63;8.48;;;1.60;99.90;;;;;;5066135;28;20024;-73
2021/12/07 03:04:15;;;;;;;23.48;8.48;;;1.70;99.90;;;;;;5066407;28;20016;-73
2021/12/07 03:25:56;;;;;;;;;;;1.70;99.90;;;;;;5046788;28;20049;-74
2021/12/07 03:26:10;;;;;;;24.98;7.72;;;1.80;99.90;;;;;;5066099;28;20044;-75
2021/12/07 03:28:44;;;;;;;21.02;6.70;;;1.80;99.90;;;;;;5065732;28;20040;-73
2021/12/07 03:31:11;;;;;;;22.65;8.75;;;1.80;99.90;;;;;;5064644;28;20025;-72
2021/12/07 03:33:38;;;;;;;22.67;8.32;;;1.80;99.90;;;;;;5065771;28;20037;-72
2021/12/07 03:36:05;;;;;;;25.92;8.88;;;1.80;99.90;;;;;;5064426;28;20535;-72
2021/12/07 03:38:31;;;;;;;17.50;6.25;;;1.80;99.90;;;;;;5065087;28;20029;-75
2021/12/07 03:40:57;;;;;;;24.98;8.35;;;1.80;99.90;;;;;;5065391;28;20560;-73
2021/12/07 03:43:23;;;;;;;18.75;6.72;;;1.80;99.90;;;;;;5065718;28;20029;-73
2021/12/07 03:45:49;;;;;;;15.18;5.10;;;1.90;99.90;;;;;;5064232;28;20049;-74
2021/12/07 03:48:16;;;;;;;24.08;7.72;;;1.80;99.90;;;;;;5065456;28;20108;-76
2021/12/07 03:50:46;;;;;;;22.05;7.80;;;1.80;99.90;;;;;;5066203;28;20053;-74
2021/12/07 03:53:14;;;;;;;26.52;8.20;;;1.80;99.90;;;;;;5065202;28;20036;-75
2021/12/07 03:55:41;;;;;;;19.45;7.22;;;1.80;99.90;;;;;;5065453;28;20099;-74
2021/12/07 03:58:07;;;;;;;26.13;9.48;;;1.80;99.90;;;;;;5065491;28;20051;-74
2021/12/07 04:00:35;;;;;;;21.80;7.45;;;1.80;99.90;;;;;;5063880;28;20029;-73
2021/12/07 04:03:07;;;;;;;21.65;8.98;;;1.80;99.90;;;;;;5062709;28;20095;-75
2021/12/07 04:05:34;;;;;;;19.00;7.22;;;1.80;99.90;;;;;;5064341;28;20027;-73
2021/12/07 04:07:59;;;;;;;25.67;8.23;;;1.80;99.90;;;;;;5064895;28;20025;-74
2021/12/07 04:10:25;;;;;;;20.38;7.30;;;1.70;99.90;;;;;;5063492;28;20053;-77
2021/12/07 04:12:52;;;;;;;26.25;8.18;;;1.70;99.90;;;;;;5065400;28;20025;-74
2021/12/07 04:15:19;;;;;;;20.35;8.00;;;1.70;99.90;;;;;;5063693;28;20482;-74
2021/12/07 04:17:46;;;;;;;25.25;8.52;;;1.70;99.90;;;;;;5065320;28;20074;-76
2021/12/07 04:20:16;;;;;;;26.67;9.38;;;1.70;99.90;;;;;;5065091;28;20031;-76
2021/12/07 04:22:43;;;;;;;24.00;8.52;;;1.60;99.90;;;;;;5065165;28;20064;-74
2021/12/07 04:25:12;;;;;;;24.48;8.70;;;1.60;99.90;;;;;;5064462;28;20087;-75
2021/12/07 04:27:39;;;;;;;27.45;7.97;;;1.60;99.90;;;;;;5065181;28;20036;-74
2021/12/07 04:30:17;;;;;;;27.85;7.78;;;1.60;99.90;;;;;;5064812;28;20436;-73
2021/12/07 04:32:44;;;;;;;25.98;8.10;;;1.60;99.90;;;;;;5063611;28;20029;-75
2021/12/07 04:35:12;;;;;;;22.33;8.15;;;1.50;99.90;;;;;;5063729;28;20037;-75
2021/12/07 04:37:39;;;;;;;20.58;7.57;;;1.50;99.90;;;;;;5063592;28;20063;-74
2021/12/07 04:40:10;;;;;;;27.15;8.50;;;1.60;99.90;;;;;;5063292;28;20029;-76
2021/12/07 04:42:36;;;;;;;30.05;8.07;;;1.50;99.90;;;;;;5064709;28;20039;-74
2021/12/07 04:45:05;;;;;;;23.20;8.55;;;1.60;99.90;;;;;;5064406;28;20033;-74
2021/12/07 04:50:29;;;;;;;30.98;7.93;;;1.60;99.90;;;;;;5064094;28;20179;-75
2021/12/07 04:58:21;;;;;;;23.70;7.95;;;1.60;99.90;;;;;;5064809;28;20483;-74
2021/12/07 05:00:49;;;;;;;30.67;9.88;;;1.60;99.90;;;;;;5064412;28;20084;-75
2021/12/07 05:03:15;;;;;;;31.23;7.95;;;1.60;99.90;;;;;;5062963;28;20048;-75
2021/12/07 05:05:47;;;;;;;26.05;8.02;;;1.50;99.90;;;;;;5064869;28;20430;-72
2021/12/07 05:08:18;;;;;;;28.40;9.90;;;1.60;99.90;;;;;;5063055;28;20021;-73
2021/12/07 05:24:09;;;;;;;24.13;8.88;;;1.50;99.90;;;;;;5064649;28;20070;-73
2021/12/07 05:40:08;;;;;;;19.50;6.78;;;1.70;99.90;;;;;;5064250;28;20044;-73
2021/12/07 05:42:39;;;;;;;30.40;9.77;;;1.70;99.90;;;;;;5063792;28;20033;-73
2021/12/07 05:45:07;;;;;;;29.85;9.20;;;1.80;99.90;;;;;;5062671;28;20029;-74
2021/12/07 05:47:33;;;;;;;36.55;8.70;;;1.70;99.90;;;;;;5063479;28;20032;-74
2021/12/07 05:49:59;;;;;;;33.22;9.80;;;1.80;99.90;;;;;;5063915;28;20025;-74
2021/12/07 05:52:25;;;;;;;22.42;9.05;;;1.80;99.90;;;;;;5062834;28;20118;-74
2021/12/07 05:54:52;;;;;;;23.67;7.60;;;1.80;99.90;;;;;;5063732;28;20489;-73
2021/12/07 05:57:18;;;;;;;32.38;9.77;;;1.70;99.90;;;;;;5062774;28;20047;-74
2021/12/07 05:59:45;;;;;;;26.17;7.18;;;1.80;99.90;;;;;;5064272;28;20117;-76
2021/12/07 06:02:10;;;;;;;25.95;8.30;;;1.80;99.90;;;;;;5064278;28;20043;-74
2021/12/07 06:04:36;;;;;;;32.92;8.10;;;1.80;99.90;;;;;;5067693;28;20029;-74
2021/12/07 06:07:03;;;;;;;29.52;8.15;;;1.80;99.90;;;;;;5066186;28;20044;-72
2021/12/07 06:09:29;;;;;;;23.63;8.13;;;1.80;99.90;;;;;;5067465;28;20025;-74
2021/12/07 06:11:55;;;;;;;27.08;9.88;;;1.80;99.90;;;;;;5067563;28;20061;-75
2021/12/07 06:14:28;;;;;;;29.15;8.75;;;1.80;99.90;;;;;;5065913;28;20078;-75
2021/12/07 06:16:54;;;;;;;25.08;9.73;;;1.80;99.90;;;;;;5063972;28;20473;-74
2021/12/07 06:19:19;;;;;;;19.77;7.82;;;1.80;99.90;;;;;;5067301;28;20032;-74
2021/12/07 06:21:46;;;;;;;23.92;8.30;;;1.80;99.90;;;;;;5067207;28;20025;-77
2021/12/07 06:24:12;;;;;;;20.85;6.53;;;1.80;99.90;;;;;;5067054;28;20040;-76
2021/12/07 06:26:38;;;;;;;30.95;9.48;;;1.80;99.90;;;;;;5067390;28;20048;-76
2021/12/07 06:29:04;;;;;;;42.70;10.18;;;1.80;99.90;;;;;;5066993;28;20040;-76
2021/12/07 06:31:29;;;;;;;32.58;10.43;;;1.80;99.90;;;;;;5065363;28;20025;-77
2021/12/07 06:33:55;;;;;;;31.13;9.88;;;1.80;99.90;;;;;;5067124;28;20371;-73
2021/12/07 06:36:21;;;;;;;34.13;10.00;;;1.80;99.90;;;;;;5065114;28;20037;-73
2021/12/07 06:38:47;;;;;;;24.77;8.20;;;1.80;99.90;;;;;;5066672;28;20035;-76
2021/12/07 06:41:14;;;;;;;34.35;9.95;;;1.80;99.90;;;;;;5065553;28;20049;-76
2021/12/07 06:43:44;;;;;;;22.90;8.95;;;1.80;99.90;;;;;;5064827;28;20032;-75
2021/12/07 06:46:10;;;;;;;27.27;8.52;;;1.90;99.90;;;;;;5064163;28;20033;-78
2021/12/07 06:48:36;;;;;;;23.45;8.27;;;1.80;99.90;;;;;;5065205;28;20032;-78
2021/12/07 06:51:03;;;;;;;36.38;11.50;;;1.90;99.90;;;;;;5059031;28;20033;-77
2021/12/07 06:53:36;;;;;;;31.48;8.73;;;1.90;99.90;;;;;;5068520;28;20056;-79
2021/12/07 06:56:06;;;;;;;30.85;9.35;;;1.80;99.90;;;;;;5065778;28;20021;-78
2021/12/07 06:58:33;;;;;;;27.70;8.30;;;1.90;99.90;;;;;;5059385;28;20420;-77
2021/12/07 07:00:58;;;;;;;28.05;8.50;;;1.90;99.90;;;;;;5061297;28;20021;-77
2021/12/07 07:03:24;;;;;;;20.65;7.47;;;1.90;99.90;;;;;;5057823;28;20025;-80
2021/12/07 07:05:51;;;;;;;29.52;8.85;;;1.90;99.90;;;;;;5050476;28;20040;-79
2021/12/07 07:08:17;;;;;;;26.90;8.18;;;1.90;99.90;;;;;;5059726;28;20031;-80
2021/12/07 07:10:43;;;;;;;32.28;10.88;;;1.90;99.90;;;;;;5058203;28;20457;-79
2021/12/07 07:13:09;;;;;;;25.20;9.02;;;2.00;99.90;;;;;;5047484;28;20048;-78
2021/12/07 07:15:35;;;;;;;26.08;7.82;;;2.00;99.90;;;;;;5044832;28;20037;-76
2021/12/07 07:18:01;;;;;;;25.45;9.15;;;2.00;99.90;;;;;;5050520;28;20032;-77
2021/12/07 07:20:27;;;;;;;28.85;9.48;;;2.00;99.90;;;;;;5059251;28;20060;-77
2021/12/07 07:22:56;;;;;;;27.55;9.05;;;2.00;99.90;;;;;;5049001;28;20077;-79
2021/12/07 07:25:22;;;;;;;26.83;8.10;;;2.00;99.90;;;;;;5064586;28;20103;-77
2021/12/07 07:27:48;;;;;;;33.92;8.93;;;2.00;99.90;;;;;;5065018;28;20033;-78
2021/12/07 07:30:17;;;;;;;36.08;9.90;;;2.10;99.90;;;;;;5064586;28;20029;-77
2021/12/07 07:32:45;;;;;;;24.98;9.23;;;2.00;99.90;;;;;;5065523;28;20033;-78
2021/12/07 07:35:11;;;;;;;20.10;8.90;;;2.00;99.90;;;;;;5064624;28;20041;-78
2021/12/07 07:37:38;;;;;;;25.83;8.32;;;2.00;99.90;;;;;;5064344;28;20028;-79
2021/12/07 07:40:06;;;;;;;24.52;9.40;;;2.10;99.90;;;;;;5064349;28;20033;-75
2021/12/07 07:42:33;;;;;;;23.27;7.72;;;2.10;99.90;;;;;;5064547;28;20037;-76
2021/12/07 07:44:58;;;;;;;32.00;9.30;;;2.00;99.90;;;;;;5064674;28;20025;-78
2021/12/07 07:47:24;;;;;;;29.73;8.27;;;2.00;99.90;;;;;;5065835;28;20028;-77
2021/12/07 07:49:50;;;;;;;26.88;10.18;;;2.10;99.90;;;;;;5064207;28;20029;-77
2021/12/07 07:52:16;;;;;;;28.88;8.88;;;2.10;99.90;;;;;;5063628;28;20040;-79
2021/12/07 07:54:46;;;;;;;38.05;9.13;;;2.10;99.90;;;;;;5065306;28;20053;-76
2021/12/07 07:57:12;;;;;;;24.73;8.90;;;2.10;99.90;;;;;;5064969;28;20151;-75
2021/12/07 07:59:39;;;;;;;21.55;8.52;;;2.10;99.90;;;;;;5063630;28;20025;-75
2021/12/07 08:02:06;;;;;;;29.88;8.13;;;2.20;99.90;;;;;;5062617;28;20093;-79
2021/12/07 08:04:31;;;;;;;21.98;8.27;;;2.10;99.90;;;;;;5064498;28;20052;-77
2021/12/07 08:06:57;;;;;;;21.88;7.75;;;2.10;99.90;;;;;;5063262;28;20025;-76
2021/12/07 08:09:22;;;;;;;28.50;7.85;;;2.20;99.90;;;;;;5065009;28;20025;-76
2021/12/07 08:11:48;;;;;;;31.73;9.38;;;2.10;99.90;;;;;;5064827;28;20107;-77
2021/12/07 08:14:17;;;;;;;25.42;9.30;;;2.20;99.90;;;;;;5065357;28;20109;-76
2021/12/07 08:16:46;;;;;;;22.80;9.13;;;2.20;99.90;;;;;;5063667;28;20124;-78
2021/12/07 08:19:16;;;;;;;30.17;9.73;;;2.20;99.90;;;;;;5063172;28;20089;-79
2021/12/07 08:21:42;;;;;;;31.15;9.38;;;2.20;99.90;;;;;;5055544;28;20029;-77
2021/12/07 08:24:07;;;;;;;25.52;8.57;;;2.20;99.90;;;;;;5043175;28;20037;-73
2021/12/07 08:26:33;;;;;;;30.65;7.97;;;2.20;99.90;;;;;;5050776;28;20040;-75
2021/12/07 08:29:01;;;;;;;28.30;10.35;;;2.20;99.90;;;;;;5057284;28;20108;-75
2021/12/07 08:31:28;;;;;;;24.50;9.27;;;2.20;99.90;;;;;;5064365;28;20029;-76
2021/12/07 08:33:54;;;;;;;21.55;7.72;;;2.20;99.90;;;;;;5063054;28;20051;-76
2021/12/07 08:36:20;;;;;;;21.20;9.15;;;2.30;99.90;;;;;;5064966;28;20021;-77
2021/12/07 08:38:50;;;;;;;32.42;9.50;;;2.20;99.90;;;;;;5064747;28;20035;-79
2021/12/07 08:41:16;;;;;;;23.38;8.07;;;2.30;99.90;;;;;;5060048;28;20029;-76
2021/12/07 08:43:53;;;;;;;24.25;8.30;;;2.30;99.90;;;;;;5060596;28;20032;-77
2021/12/07 08:46:20;;;;;;;26.35;9.75;;;2.30;99.90;;;;;;5055276;28;20024;-78
2021/12/07 08:48:46;;;;;;;27.02;8.43;;;2.30;99.90;;;;;;5063256;28;20031;-76
2021/12/07 08:51:21;;;;;;;25.15;8.63;;;2.30;99.90;;;;;;5064651;28;20100;-78
2021/12/07 08:54:04;;;;;;;33.22;8.63;;;2.40;99.90;;;;;;5060259;28;20065;-77
2021/12/07 09:01:58;;;;;;;22.67;8.15;;;2.40;99.90;;;;;;5062715;28;20044;-77
2021/12/07 09:04:24;;;;;;;26.55;8.27;;;2.40;99.90;;;;;;5061394;28;20061;-76
2021/12/07 09:06:51;;;;;;;28.55;9.43;;;2.40;99.90;;;;;;5062291;28;20033;-75
2021/12/07 09:09:20;;;;;;;25.58;9.30;;;2.50;99.90;;;;;;5062699;28;20538;-78
2021/12/07 09:11:48;;;;;;;27.98;9.25;;;2.50;99.90;;;;;;5062783;28;20041;-77
2021/12/07 09:14:19;;;;;;;21.58;9.57;;;2.50;99.90;;;;;;5063501;28;20044;-78
2021/12/07 09:16:53;;;;;;;24.92;8.10;;;2.40;99.90;;;;;;5062029;28;20349;-77
2021/12/07 09:19:20;;;;;;;22.95;8.55;;;2.50;99.90;;;;;;5062399;28;20037;-76
2021/12/07 09:21:47;;;;;;;29.73;9.60;;;2.50;99.90;;;;;;5060715;28;20021;-77
2021/12/07 09:24:13;;;;;;;20.42;8.35;;;2.50;99.90;;;;;;5061650;28;20028;-78
2021/12/07 09:26:39;;;;;;;27.85;10.07;;;2.50;99.90;;;;;;5057055;28;20025;-75
2021/12/07 09:29:06;;;;;;;28.45;9.40;;;2.60;99.90;;;;;;5063875;28;20029;-75
2021/12/07 09:31:35;;;;;;;42.53;11.20;;;2.60;99.90;;;;;;5058826;28;20106;-77
2021/12/07 09:34:02;;;;;;;26.83;8.98;;;2.60;99.90;;;;;;5062690;28;20057;-75
2021/12/07 09:36:28;;;;;;;32.15;8.15;;;2.60;99.90;;;;;;5064935;28;20051;-75
2021/12/07 09:38:54;;;;;;;29.92;7.95;;;2.60;99.90;;;;;;5063213;28;20025;-77
2021/12/07 09:41:21;;;;;;;26.33;8.73;;;2.60;99.90;;;;;;5063272;28;20032;-75
2021/12/07 09:43:54;;;;;;;23.25;8.52;;;2.70;99.90;;;;;;5064946;28;20029;-75
2021/12/07 09:46:21;;;;;;;20.05;8.98;;;2.70;99.90;;;;;;5066743;28;20104;-76
2021/12/07 09:48:47;;;;;;;25.58;8.65;;;2.70;99.90;;;;;;5066394;28;20037;-77
2021/12/07 09:51:22;;;;;;;22.40;8.32;;;2.70;99.90;;;;;;5066774;28;20041;-74
2021/12/07 09:53:50;;;;;;;22.52;8.23;;;2.70;99.90;;;;;;5066353;28;20535;-77
2021/12/07 09:56:19;;;;;;;28.55;9.70;;;2.80;99.90;;;;;;5066273;28;20025;-75
2021/12/07 09:58:53;;;;;;;23.02;8.07;;;2.80;99.90;;;;;;5067602;28;20024;-77
2021/12/07 10:01:21;;;;;;;;;;;2.80;99.90;;;;;;5067970;28;20048;-78
2021/12/07 10:03:49;;;;;;;18.80;7.07;;;2.80;99.90;;;;;;5067714;28;19911;-78
2021/12/07 10:06:15;;;;;;;21.55;8.23;;;2.90;99.90;;;;;;5065692;28;20102;-77
2021/12/07 10:08:44;;;;;;;22.80;8.15;;;2.90;99.90;;;;;;5065565;28;20093;-76
2021/12/07 10:11:13;;;;;;;22.60;7.65;;;2.90;99.90;;;;;;5067638;28;20780;-75
2021/12/07 10:13:43;;;;;;;17.00;8.32;;;2.90;99.90;;;;;;5066380;28;20037;-75
2021/12/07 10:16:12;;;;;;;16.75;6.53;;;3.00;99.90;;;;;;5067430;28;20029;-76
2021/12/07 10:18:40;;;;;;;21.33;8.02;;;3.00;99.90;;;;;;5067725;28;20104;-75
2021/12/07 10:21:21;;;;;;;22.20;8.30;;;3.00;99.90;;;;;;5066087;28;20040;-75
2021/12/07 10:24:02;;;;;;;27.60;9.00;;;3.00;99.90;;;;;;5059848;28;20021;-78
2021/12/07 10:26:36;;;;;;;28.80;8.68;;;3.00;99.90;;;;;;5051012;28;20069;-79
2021/12/07 10:29:20;;;;;;;28.73;9.48;;;3.10;99.90;;;;;;5065898;28;20014;-76
2021/12/07 10:32:02;;;;;;;18.77;5.75;;;3.20;99.90;;;;;;5067275;28;20032;-79
2021/12/07 10:34:33;;;;;;;20.45;6.85;;;3.20;99.90;;;;;;5064599;28;20084;-75
2021/12/07 10:37:11;;;;;;;19.00;7.60;;;3.20;99.90;;;;;;5066954;28;20107;-77
2021/12/07 10:39:44;;;;;;;23.88;8.13;;;3.30;99.90;;;;;;5065624;28;20033;-77
2021/12/07 10:42:13;;;;;;;;;;;3.30;99.90;;;;;;5067582;28;20032;-78
2021/12/07 10:44:42;;;;;;;22.70;8.38;;;3.30;99.90;;;;;;5065221;28;20348;-75
2021/12/07 10:47:10;;;;;;;21.90;8.00;;;3.40;99.90;;;;;;5064876;28;20120;-75
2021/12/07 10:49:51;;;;;;;27.05;8.77;;;3.40;99.90;;;;;;5065500;28;20462;-76
2021/12/07 10:52:29;;;;;;;25.45;7.57;;;3.40;99.90;;;;;;5064820;28;20085;-78
2021/12/07 10:55:16;;;;;;;26.58;8.75;;;3.40;99.90;;;;;;5064885;28;20057;-78
2021/12/07 10:57:54;;;;;;;19.60;7.05;;;3.50;99.90;;;;;;5065440;28;20028;-75
2021/12/07 11:00:41;;;;;;;18.02;6.90;;;3.50;99.90;;;;;;5064334;28;20021;-76
2021/12/07 11:03:20;;;;;;;24.77;6.82;;;3.50;99.90;;;;;;5061826;28;20052;-75
2021/12/07 11:05:54;;;;;;;21.65;7.65;;;3.50;99.90;;;;;;5065279;28;20083;-78
2021/12/07 11:08:28;;;;;;;16.55;6.68;;;3.60;99.90;;;;;;5065252;28;20036;-76
2021/12/07 11:10:55;;;;;;;34.63;8.30;;;3.60;99.90;;;;;;5066352;28;20029;-79
2021/12/07 11:13:26;;;;;;;17.13;7.13;;;3.70;99.90;;;;;;5064731;28;20021;-77
2021/12/07 11:16:06;;;;;;;15.40;6.32;;;3.70;99.90;;;;;;5066281;28;20435;-76
2021/12/07 11:18:38;;;;;;;19.80;6.50;;;3.70;99.90;;;;;;5064365;28;20025;-76
2021/12/07 11:21:10;;;;;;;17.27;5.72;;;3.70;99.90;;;;;;5064042;28;20455;-77
2021/12/07 11:23:40;;;;;;;22.15;8.20;;;3.60;99.90;;;;;;5064872;28;20082;-77
2021/12/07 11:31:46;;;;;;;30.48;7.82;;;3.60;99.90;;;;;;5065504;28;20043;-76
2021/12/07 11:34:31;;;;;;;18.25;7.93;;;3.60;99.90;;;;;;5064121;28;20041;-77
2021/12/07 11:37:08;;;;;;;20.33;7.22;;;3.60;99.90;;;;;;5065985;28;20029;-75
2021/12/07 11:39:46;;;;;;;24.30;7.50;;;3.60;99.90;;;;;;5064530;28;20086;-78
2021/12/07 11:42:21;;;;;;;29.70;9.07;;;3.60;99.90;;;;;;5064388;28;20025;-78
2021/12/07 11:44:50;;;;;;;26.42;6.70;;;3.60;99.90;;;;;;5063760;28;20025;-75
2021/12/07 11:47:50;;;;;;;28.08;7.57;;;3.70;99.90;;;;;;5064381;28;20036;-78
2021/12/07 11:50:44;;;;;;;22.13;7.78;;;3.70;99.90;;;;;;5045609;28;20097;-73
2021/12/07 11:53:13;;;;;;;;;;;3.70;99.90;;;;;;5042456;28;20149;-77
2021/12/07 11:55:52;;;;;;;22.33;6.88;;;3.70;99.90;;;;;;5063064;28;19999;-73
2021/12/07 11:58:28;;;;;;;18.85;5.70;;;3.60;99.90;;;;;;5063429;28;20461;-76
2021/12/07 12:00:57;;;;;;;20.95;7.35;;;3.70;99.90;;;;;;5058371;28;20035;-77
2021/12/07 12:03:26;;;;;;;22.30;7.15;;;3.60;99.90;;;;;;5064448;28;20032;-76
2021/12/07 12:05:54;;;;;;;23.80;8.73;;;3.70;99.90;;;;;;5064032;28;20025;-77
2021/12/07 12:08:22;;;;;;;23.35;6.82;;;3.70;99.90;;;;;;5048854;28;20037;-78
2021/12/07 12:11:02;;;;;;;18.58;6.03;;;3.70;99.90;;;;;;5063083;28;20412;-78
2021/12/07 12:14:06;;;;;;;23.15;8.23;;;3.70;99.90;;;;;;5062909;28;20496;-75
2021/12/07 12:16:54;;;;;;;24.77;7.22;;;3.70;99.90;;;;;;5061735;28;20033;-78
2021/12/07 12:19:48;;;;;;;22.45;6.07;;;3.70;99.90;;;;;;5063622;28;20487;-76
2021/12/07 12:22:45;;;;;;;19.42;7.07;;;3.70;99.90;;;;;;5057682;28;20060;-81
2021/12/07 12:25:23;;;;;;;15.93;6.05;;;3.70;99.90;;;;;;5062318;28;20412;-78
2021/12/07 12:27:53;;;;;;;17.33;7.30;;;3.70;99.90;;;;;;5064579;28;20021;-75
2021/12/07 12:30:20;;;;;;;26.08;7.28;;;3.70;99.90;;;;;;5061744;28;20465;-77
2021/12/07 12:32:54;;;;;;;21.33;6.55;;;3.70;99.90;;;;;;5062335;28;20037;-77
2021/12/07 12:35:40;;;;;;;27.20;6.35;;;3.80;99.90;;;;;;5042275;28;20044;-76
2021/12/07 12:38:21;;;;;;;16.85;5.82;;;3.80;99.90;;;;;;5048861;28;20044;-76
2021/12/07 12:41:19;;;;;;;15.43;7.05;;;3.80;99.90;;;;;;5063128;28;20392;-76
2021/12/07 12:43:54;;;;;;;20.55;6.18;;;3.80;99.90;;;;;;5060488;28;20090;-80
2021/12/07 12:46:26;;;;;;;24.83;7.10;;;3.80;99.90;;;;;;5062557;28;20032;-80
2021/12/07 12:48:56;;;;;;;34.20;9.55;;;3.80;99.90;;;;;;5062562;28;20049;-77
2021/12/07 12:51:31;;;;;;;25.52;9.07;;;3.80;99.90;;;;;;5062230;28;20438;-78
2021/12/07 12:53:57;;;;;;;20.65;6.28;;;3.90;99.90;;;;;;5061788;28;20053;-77
2021/12/07 12:56:31;;;;;;;24.88;6.63;;;3.90;99.90;;;;;;5062522;28;20092;-76
2021/12/07 12:59:03;;;;;;;18.73;7.50;;;4.00;99.90;;;;;;5062029;28;20037;-75
2021/12/07 13:01:32;;;;;;;20.80;6.97;;;4.00;99.90;;;;;;5063288;28;20106;-79
2021/12/07 13:04:02;;;;;;;25.55;7.82;;;4.10;99.90;;;;;;5061514;28;20111;-76
2021/12/07 13:06:37;;;;;;;14.20;5.85;;;4.00;99.90;;;;;;5061927;28;20041;-77
2021/12/07 13:09:06;;;;;;;23.60;7.57;;;4.10;99.90;;;;;;5061313;28;20740;-78
2021/12/07 13:11:56;;;;;;;27.33;7.35;;;4.10;99.90;;;;;;5065766;28;20091;-75
2021/12/07 13:14:21;;;;;;;19.45;6.65;;;4.10;99.90;;;;;;5046214;28;20041;-77
2021/12/07 13:17:19;;;;;;;21.30;7.57;;;4.20;99.90;;;;;;5047821;28;20036;-78
2021/12/07 13:19:59;;;;;;;22.05;5.78;;;4.20;99.90;;;;;;5057719;28;20041;-79
2021/12/07 13:22:56;;;;;;;;;;;;;;;;;;;;;
2021/12/07 13:25:34;;;;;;;23.48;6.25;;;4.20;99.90;;;;;;5047017;28;20093;-78
2021/12/07 13:28:01;;;;;;;14.95;7.10;;;4.20;99.90;;;;;;5045600;28;20125;-77
2021/12/07 13:30:37;;;;;;;27.60;6.35;;;4.20;99.90;;;;;;5046755;28;20083;-74
2021/12/07 13:33:34;;;;;;;42.45;7.03;;;4.30;99.90;;;;;;5044501;28;20528;-76
2021/12/07 13:36:01;;;;;;;20.02;7.57;;;4.20;99.90;;;;;;5046775;28;20074;-78
2021/12/07 13:38:28;;;;;;;16.45;6.40;;;4.20;99.90;;;;;;5046045;28;20363;-77
2021/12/07 13:41:14;;;;;;;19.42;7.25;;;4.30;99.90;;;;;;5047299;28;20028;-79
2021/12/07 13:43:46;;;;;;;21.13;7.75;;;4.30;99.90;;;;;;5045215;28;20025;-79
2021/12/07 13:46:21;;;;;;;21.73;7.00;;;4.30;99.90;;;;;;5045905;28;20060;-78
2021/12/07 13:48:51;;;;;;;18.42;7.05;;;4.30;99.90;;;;;;5045589;28;20052;-77
2021/12/07 13:51:22;;;;;;;20.33;5.38;;;4.30;99.90;;;;;;5045783;28;20036;-78
2021/12/07 13:53:50;;;;;;;21.77;6.68;;;4.30;99.90;;;;;;5061564;28;20046;-78
2021/12/07 13:56:18;;;;;;;21.00;6.55;;;4.30;99.90;;;;;;5062539;28;20401;-77
2021/12/07 13:58:58;;;;;;;24.77;8.95;;;4.40;99.90;;;;;;5065789;28;20155;-79
2021/12/07 14:01:26;;;;;;;22.58;7.88;;;4.40;99.90;;;;;;5066431;28;20519;-75
2021/12/07 14:03:52;;;;;;;29.05;7.82;;;4.40;99.90;;;;;;5066512;28;20053;-75
2021/12/07 14:06:19;;;;;;;27.88;7.57;;;4.50;99.90;;;;;;5063835;28;20024;-76
2021/12/07 14:09:05;;;;;;;21.20;5.93;;;4.40;99.90;;;;;;5064924;28;20103;-74
2021/12/07 14:11:31;;;;;;;25.80;7.97;;;4.50;99.90;;;;;;5065221;28;20032;-76
2021/12/07 14:13:56;;;;;;;19.38;6.53;;;4.40;99.90;;;;;;5064403;28;20166;-76
2021/12/07 14:16:24;;;;;;;20.13;6.55;;;4.50;99.90;;;;;;5064715;28;20108;-76
2021/12/07 14:18:51;;;;;;;13.90;6.60;;;4.50;99.90;;;;;;5065488;28;20029;-75
2021/12/07 14:21:21;;;;;;;24.05;8.27;;;4.50;99.90;;;;;;5065781;28;20037;-76
2021/12/07 14:23:52;;;;;;;21.63;6.75;;;4.50;99.90;;;;;;5064248;28;20120;-74
2021/12/07 14:26:24;;;;;;;16.08;5.95;;;4.40;99.90;;;;;;5064697;28;20040;-76
2021/12/07 14:29:04;;;;;;;18.70;6.95;;;4.40;99.90;;;;;;5064741;28;20047;-75
2021/12/07 14:31:58;;;;;;;16.25;6.60;;;4.40;99.90;;;;;;5065696;28;20029;-74
2021/12/07 14:34:32;;;;;;;21.52;7.43;;;4.40;99.90;;;;;;5062538;28;20048;-75
2021/12/07 14:37:01;;;;;;;17.63;6.45;;;4.30;99.90;;;;;;5064675;28;20055;-74
2021/12/07 14:39:30;;;;;;;19.85;8.05;;;4.50;99.90;;;;;;5066109;28;20025;-76
2021/12/07 14:42:06;;;;;;;27.05;6.97;;;4.30;99.90;;;;;;5063666;28;20051;-76